sensor_id;sensor_type;location;lat;lon;timestamp;temperature;humidity
9497;DHT22;4786;51.270;4.456;2024-03-23T00:55:16;9.30;99.90
9497;DHT22;4786;51.270;4.456;2024-03-23T00:57:42;9.20;99.90
9497;DHT22;4786;51.270;4.456;2024-03-23T01:00:08;9.20;99.90
9497;DHT22;4786;51.270;4.456;2024-03-23T01:02:36;9.20;99.90
9497;DHT22;4786;51.270;4.456;2024-03-23T01:05:01;9.10;99.90
9497;DHT22;4786;51.270;4.456;2024-03-23T01:07:27;9.30;99.90
9497;DHT22;4786;51.270;4.456;2024-03-23T01:09:53;9.30;99.90
9497;DHT22;4786;51.270;4.456;2024-03-23T01:12:18;9.30;99.90
9497;DHT22;4786;51.270;4.456;2024-03-23T01:14:44;9.30;99.90
9497;DHT22;4786;51.270;4.456;2024-03-23T01:17:10;9.20;99.90
9497;DHT22;4786;51.270;4.456;2024-03-23T01:19:35;9.10;99.90
9497;DHT22;4786;51.270;4.456;2024-03-23T01:22:01;9.10;99.90
9497;DHT22;4786;51.270;4.456;2024-03-23T01:24:27;9.10;99.90
9497;DHT22;4786;51.270;4.456;2024-03-23T01:26:52;9.00;99.90
9497;DHT22;4786;51.270;4.456;2024-03-23T01:29:18;9.00;99.90
9497;DHT22;4786;51.270;4.456;2024-03-23T01:31:44;9.10;99.90
9497;DHT22;4786;51.270;4.456;2024-03-23T01:34:09;9.00;99.90
9497;DHT22;4786;51.270;4.456;2024-03-23T01:36:35;9.00;99.90
9497;DHT22;4786;51.270;4.456;2024-03-23T01:39:00;9.10;99.90
9497;DHT22;4786;51.270;4.456;2024-03-23T01:41:26;9.00;99.90
9497;DHT22;4786;51.270;4.456;2024-03-23T01:43:55;8.90;99.90
9497;DHT22;4786;51.270;4.456;2024-03-23T01:46:21;8.90;99.90
9497;DHT22;4786;51.270;4.456;2024-03-23T01:48:47;8.80;99.90
9497;DHT22;4786;51.270;4.456;2024-03-23T01:51:13;8.80;99.90
9497;DHT22;4786;51.270;4.456;2024-03-23T01:53:38;8.70;99.90
9497;DHT22;4786;51.270;4.456;2024-03-23T01:56:05;8.60;99.90
9497;DHT22;4786;51.270;4.456;2024-03-23T01:58:31;8.60;99.90
9497;DHT22;4786;51.270;4.456;2024-03-23T02:00:57;8.50;99.90
9497;DHT22;4786;51.270;4.456;2024-03-23T02:03:24;8.40;99.90
9497;DHT22;4786;51.270;4.456;2024-03-23T02:05:51;8.40;99.90
9497;DHT22;4786;51.270;4.456;2024-03-23T02:08:18;8.40;99.90
9497;DHT22;4786;51.270;4.456;2024-03-23T02:10:44;8.40;99.90
9497;DHT22;4786;51.270;4.456;2024-03-23T02:13:10;8.40;99.90
9497;DHT22;4786;51.270;4.456;2024-03-23T02:15:36;8.30;99.90
9497;DHT22;4786;51.270;4.456;2024-03-23T02:18:02;8.30;99.90
9497;DHT22;4786;51.270;4.456;2024-03-23T02:20:27;8.20;99.90
9497;DHT22;4786;51.270;4.456;2024-03-23T02:22:53;8.10;99.90
9497;DHT22;4786;51.270;4.456;2024-03-23T02:25:19;8.10;99.90
9497;DHT22;4786;51.270;4.456;2024-03-23T02:27:44;8.00;99.90
9497;DHT22;4786;51.270;4.456;2024-03-23T02:30:10;8.00;99.90
9497;DHT22;4786;51.270;4.456;2024-03-23T02:32:36;8.00;99.90
9497;DHT22;4786;51.270;4.456;2024-03-23T02:35:01;7.90;99.90
9497;DHT22;4786;51.270;4.456;2024-03-23T02:37:27;7.90;99.90
9497;DHT22;4786;51.270;4.456;2024-03-23T02:39:53;7.80;99.90
9497;DHT22;4786;51.270;4.456;2024-03-23T02:42:19;7.80;99.90
9497;DHT22;4786;51.270;4.456;2024-03-23T02:44:45;7.70;99.90
9497;DHT22;4786;51.270;4.456;2024-03-23T02:47:11;7.70;99.90
9497;DHT22;4786;51.270;4.456;2024-03-23T02:49:36;7.70;99.90
9497;DHT22;4786;51.270;4.456;2024-03-23T02:52:02;7.60;99.90
9497;DHT22;4786;51.270;4.456;2024-03-23T02:54:28;7.60;99.90
9497;DHT22;4786;51.270;4.456;2024-03-23T02:56:54;7.60;99.90
9497;DHT22;4786;51.270;4.456;2024-03-23T02:59:19;7.70;99.90
9497;DHT22;4786;51.270;4.456;2024-03-23T03:01:45;7.60;99.90
9497;DHT22;4786;51.270;4.456;2024-03-23T03:04:11;7.60;99.90
9497;DHT22;4786;51.270;4.456;2024-03-23T03:06:36;7.50;99.90
9497;DHT22;4786;51.270;4.456;2024-03-23T03:09:02;7.50;99.90
9497;DHT22;4786;51.270;4.456;2024-03-23T03:11:28;7.50;99.90
9497;DHT22;4786;51.270;4.456;2024-03-23T03:13:54;7.50;99.90
9497;DHT22;4786;51.270;4.456;2024-03-23T03:16:19;7.50;99.90
9497;DHT22;4786;51.270;4.456;2024-03-23T03:18:45;7.40;99.90
9497;DHT22;4786;51.270;4.456;2024-03-23T03:21:12;7.40;99.90
9497;DHT22;4786;51.270;4.456;2024-03-23T03:23:38;7.40;99.90
9497;DHT22;4786;51.270;4.456;2024-03-23T03:26:04;7.40;99.90
9497;DHT22;4786;51.270;4.456;2024-03-23T03:28:31;7.40;99.90
9497;DHT22;4786;51.270;4.456;2024-03-23T03:31:00;7.40;99.90
9497;DHT22;4786;51.270;4.456;2024-03-23T03:33:27;7.40;99.90
9497;DHT22;4786;51.270;4.456;2024-03-23T03:35:52;7.40;99.90
9497;DHT22;4786;51.270;4.456;2024-03-23T03:38:18;7.30;99.90
9497;DHT22;4786;51.270;4.456;2024-03-23T03:40:44;7.30;99.90
9497;DHT22;4786;51.270;4.456;2024-03-23T03:43:10;7.30;99.90
9497;DHT22;4786;51.270;4.456;2024-03-23T03:45:36;7.20;99.90
9497;DHT22;4786;51.270;4.456;2024-03-23T03:48:02;7.20;99.90
9497;DHT22;4786;51.270;4.456;2024-03-23T03:50:28;7.20;99.90
9497;DHT22;4786;51.270;4.456;2024-03-23T03:52:53;7.20;99.90
9497;DHT22;4786;51.270;4.456;2024-03-23T03:55:19;7.20;99.90
9497;DHT22;4786;51.270;4.456;2024-03-23T03:57:45;7.10;99.90
9497;DHT22;4786;51.270;4.456;2024-03-23T04:00:11;7.10;99.90
9497;DHT22;4786;51.270;4.456;2024-03-23T04:02:40;7.10;99.90
9497;DHT22;4786;51.270;4.456;2024-03-23T04:05:06;7.10;99.90
9497;DHT22;4786;51.270;4.456;2024-03-23T04:07:31;7.00;99.90
9497;DHT22;4786;51.270;4.456;2024-03-23T04:09:57;7.00;99.90
9497;DHT22;4786;51.270;4.456;2024-03-23T04:12:23;7.00;99.90
9497;DHT22;4786;51.270;4.456;2024-03-23T04:14:49;7.00;99.90
9497;DHT22;4786;51.270;4.456;2024-03-23T04:17:15;7.00;99.90
9497;DHT22;4786;51.270;4.456;2024-03-23T04:19:41;7.00;99.90
9497;DHT22;4786;51.270;4.456;2024-03-23T04:22:07;7.00;99.90
9497;DHT22;4786;51.270;4.456;2024-03-23T04:24:32;6.80;99.90
9497;DHT22;4786;51.270;4.456;2024-03-23T04:26:58;7.00;99.90
9497;DHT22;4786;51.270;4.456;2024-03-23T04:29:23;7.00;99.90
9497;DHT22;4786;51.270;4.456;2024-03-23T04:31:49;7.00;99.90
9497;DHT22;4786;51.270;4.456;2024-03-23T04:34:15;7.10;99.90
9497;DHT22;4786;51.270;4.456;2024-03-23T04:36:40;7.10;99.90
9497;DHT22;4786;51.270;4.456;2024-03-23T04:39:06;7.20;99.90
9497;DHT22;4786;51.270;4.456;2024-03-23T04:41:34;7.30;99.90
9497;DHT22;4786;51.270;4.456;2024-03-23T04:44:00;7.40;99.90
9497;DHT22;4786;51.270;4.456;2024-03-23T04:46:26;7.40;99.90
9497;DHT22;4786;51.270;4.456;2024-03-23T04:48:52;7.50;99.90
9497;DHT22;4786;51.270;4.456;2024-03-23T04:51:24;7.50;99.90
9497;DHT22;4786;51.270;4.456;2024-03-23T04:53:50;7.60;99.90
9497;DHT22;4786;51.270;4.456;2024-03-23T04:56:16;7.60;99.90
9497;DHT22;4786;51.270;4.456;2024-03-23T04:58:43;7.70;99.90
9497;DHT22;4786;51.270;4.456;2024-03-23T05:01:10;7.70;99.90
9497;DHT22;4786;51.270;4.456;2024-03-23T05:03:36;7.60;99.90
9497;DHT22;4786;51.270;4.456;2024-03-23T05:06:02;7.60;99.90
9497;DHT22;4786;51.270;4.456;2024-03-23T05:08:27;7.60;99.90
9497;DHT22;4786;51.270;4.456;2024-03-23T05:10:53;7.50;99.90
9497;DHT22;4786;51.270;4.456;2024-03-23T05:13:18;7.50;99.90
9497;DHT22;4786;51.270;4.456;2024-03-23T05:15:44;7.50;99.90
9497;DHT22;4786;51.270;4.456;2024-03-23T05:18:15;7.40;99.90
9497;DHT22;4786;51.270;4.456;2024-03-23T05:20:41;7.40;99.90
9497;DHT22;4786;51.270;4.456;2024-03-23T05:23:07;7.40;99.90
9497;DHT22;4786;51.270;4.456;2024-03-23T05:25:32;7.40;99.90
9497;DHT22;4786;51.270;4.456;2024-03-23T05:27:58;7.30;99.90
9497;DHT22;4786;51.270;4.456;2024-03-23T05:30:23;7.30;99.90
9497;DHT22;4786;51.270;4.456;2024-03-23T05:32:50;7.40;99.90
9497;DHT22;4786;51.270;4.456;2024-03-23T05:35:15;7.30;99.90
9497;DHT22;4786;51.270;4.456;2024-03-23T05:37:41;7.40;99.90
9497;DHT22;4786;51.270;4.456;2024-03-23T05:40:07;7.50;99.90
9497;DHT22;4786;51.270;4.456;2024-03-23T05:42:34;7.40;99.90
9497;DHT22;4786;51.270;4.456;2024-03-23T05:45:00;7.40;99.90
9497;DHT22;4786;51.270;4.456;2024-03-23T05:47:26;7.50;99.90
9497;DHT22;4786;51.270;4.456;2024-03-23T05:49:51;7.40;99.90
9497;DHT22;4786;51.270;4.456;2024-03-23T05:52:17;7.40;99.90
9497;DHT22;4786;51.270;4.456;2024-03-23T05:54:43;7.50;99.90
9497;DHT22;4786;51.270;4.456;2024-03-23T05:57:09;7.60;99.90
9497;DHT22;4786;51.270;4.456;2024-03-23T05:59:35;7.60;99.90
9497;DHT22;4786;51.270;4.456;2024-03-23T06:02:00;7.70;99.90
9497;DHT22;4786;51.270;4.456;2024-03-23T06:04:26;7.70;99.90
9497;DHT22;4786;51.270;4.456;2024-03-23T06:06:52;7.70;99.90
9497;DHT22;4786;51.270;4.456;2024-03-23T06:09:18;7.70;99.90
9497;DHT22;4786;51.270;4.456;2024-03-23T06:11:44;7.70;99.90
9497;DHT22;4786;51.270;4.456;2024-03-23T06:14:10;7.70;99.90
9497;DHT22;4786;51.270;4.456;2024-03-23T06:16:36;7.70;99.90
9497;DHT22;4786;51.270;4.456;2024-03-23T06:19:02;7.70;99.90
9497;DHT22;4786;51.270;4.456;2024-03-23T06:21:29;7.80;99.90
9497;DHT22;4786;51.270;4.456;2024-03-23T06:23:55;7.80;99.90
9497;DHT22;4786;51.270;4.456;2024-03-23T06:26:21;7.80;99.90
9497;DHT22;4786;51.270;4.456;2024-03-23T06:28:47;7.80;99.90
9497;DHT22;4786;51.270;4.456;2024-03-23T06:31:13;7.70;99.90
9497;DHT22;4786;51.270;4.456;2024-03-23T06:33:39;7.80;99.90
9497;DHT22;4786;51.270;4.456;2024-03-23T06:36:09;7.80;99.90
9497;DHT22;4786;51.270;4.456;2024-03-23T06:38:35;7.80;99.90
9497;DHT22;4786;51.270;4.456;2024-03-23T06:41:03;7.70;99.90
9497;DHT22;4786;51.270;4.456;2024-03-23T06:43:28;7.60;99.90
9497;DHT22;4786;51.270;4.456;2024-03-23T06:45:54;7.60;99.90
9497;DHT22;4786;51.270;4.456;2024-03-23T06:48:20;7.60;99.90
9497;DHT22;4786;51.270;4.456;2024-03-23T06:50:46;7.70;99.90
9497;DHT22;4786;51.270;4.456;2024-03-23T06:53:13;7.70;99.90
9497;DHT22;4786;51.270;4.456;2024-03-23T06:55:39;7.80;99.90
9497;DHT22;4786;51.270;4.456;2024-03-23T06:58:04;7.90;99.90
9497;DHT22;4786;51.270;4.456;2024-03-23T07:00:30;8.00;99.90
9497;DHT22;4786;51.270;4.456;2024-03-23T07:02:57;8.10;99.90
9497;DHT22;4786;51.270;4.456;2024-03-23T07:05:23;8.30;99.90
9497;DHT22;4786;51.270;4.456;2024-03-23T07:07:48;8.30;99.90
9497;DHT22;4786;51.270;4.456;2024-03-23T07:10:14;8.20;99.90
9497;DHT22;4786;51.270;4.456;2024-03-23T07:12:40;8.30;99.90
9497;DHT22;4786;51.270;4.456;2024-03-23T07:15:06;8.30;99.90
9497;DHT22;4786;51.270;4.456;2024-03-23T07:17:31;8.40;99.90
9497;DHT22;4786;51.270;4.456;2024-03-23T07:19:58;8.60;99.90
9497;DHT22;4786;51.270;4.456;2024-03-23T07:22:24;8.90;99.90
9497;DHT22;4786;51.270;4.456;2024-03-23T07:24:49;9.20;99.90
9497;DHT22;4786;51.270;4.456;2024-03-23T07:27:15;9.30;99.90
9497;DHT22;4786;51.270;4.456;2024-03-23T07:29:41;9.40;99.90
9497;DHT22;4786;51.270;4.456;2024-03-23T07:32:06;9.50;99.90
9497;DHT22;4786;51.270;4.456;2024-03-23T07:34:32;9.10;99.90
9497;DHT22;4786;51.270;4.456;2024-03-23T07:36:58;9.00;99.90
9497;DHT22;4786;51.270;4.456;2024-03-23T07:39:24;9.00;99.90
9497;DHT22;4786;51.270;4.456;2024-03-23T07:41:50;8.80;99.90
9497;DHT22;4786;51.270;4.456;2024-03-23T07:44:15;8.80;99.90
9497;DHT22;4786;51.270;4.456;2024-03-23T07:46:41;8.90;99.90
9497;DHT22;4786;51.270;4.456;2024-03-23T07:49:07;9.00;99.90
9497;DHT22;4786;51.270;4.456;2024-03-23T07:51:32;9.20;99.90
9497;DHT22;4786;51.270;4.456;2024-03-23T07:53:59;9.30;99.90
9497;DHT22;4786;51.270;4.456;2024-03-23T07:56:24;9.20;99.90
9497;DHT22;4786;51.270;4.456;2024-03-23T07:58:50;9.30;99.90
9497;DHT22;4786;51.270;4.456;2024-03-23T08:01:17;9.30;99.90
9497;DHT22;4786;51.270;4.456;2024-03-23T08:03:46;9.30;99.90
9497;DHT22;4786;51.270;4.456;2024-03-23T08:06:16;9.30;99.90
9497;DHT22;4786;51.270;4.456;2024-03-23T08:08:44;9.20;99.90
9497;DHT22;4786;51.270;4.456;2024-03-23T08:11:10;8.80;99.90
9497;DHT22;4786;51.270;4.456;2024-03-23T08:13:40;8.60;99.90
9497;DHT22;4786;51.270;4.456;2024-03-23T08:16:06;8.40;99.90
9497;DHT22;4786;51.270;4.456;2024-03-23T08:18:31;8.20;99.90
9497;DHT22;4786;51.270;4.456;2024-03-23T08:23:34;8.00;99.90
9497;DHT22;4786;51.270;4.456;2024-03-23T08:26:05;8.00;99.90
9497;DHT22;4786;51.270;4.456;2024-03-23T08:28:32;8.00;99.90
9497;DHT22;4786;51.270;4.456;2024-03-23T08:31:04;7.90;99.90
9497;DHT22;4786;51.270;4.456;2024-03-23T08:33:31;8.00;99.90
9497;DHT22;4786;51.270;4.456;2024-03-23T08:35:59;8.20;99.90
9497;DHT22;4786;51.270;4.456;2024-03-23T08:38:26;8.30;99.90
9497;DHT22;4786;51.270;4.456;2024-03-23T08:41:09;8.40;99.90
9497;DHT22;4786;51.270;4.456;2024-03-23T08:43:38;8.60;99.90
9497;DHT22;4786;51.270;4.456;2024-03-23T08:46:06;8.80;99.90
9497;DHT22;4786;51.270;4.456;2024-03-23T08:48:36;9.10;99.90
9497;DHT22;4786;51.270;4.456;2024-03-23T08:51:07;9.20;99.90
9497;DHT22;4786;51.270;4.456;2024-03-23T08:53:34;9.30;99.90
9497;DHT22;4786;51.270;4.456;2024-03-23T08:56:00;9.50;99.90
9497;DHT22;4786;51.270;4.456;2024-03-23T08:58:27;9.70;99.90
9497;DHT22;4786;51.270;4.456;2024-03-23T09:00:55;9.80;99.90
9497;DHT22;4786;51.270;4.456;2024-03-23T09:03:24;9.90;99.90
9497;DHT22;4786;51.270;4.456;2024-03-23T09:05:50;10.10;99.90
9497;DHT22;4786;51.270;4.456;2024-03-23T09:08:16;10.50;99.90
9497;DHT22;4786;51.270;4.456;2024-03-23T09:10:42;10.60;99.90
9497;DHT22;4786;51.270;4.456;2024-03-23T09:13:08;10.30;99.90
9497;DHT22;4786;51.270;4.456;2024-03-23T09:15:35;10.10;99.90
9497;DHT22;4786;51.270;4.456;2024-03-23T09:18:02;10.00;99.90
9497;DHT22;4786;51.270;4.456;2024-03-23T09:20:28;9.90;99.90
9497;DHT22;4786;51.270;4.456;2024-03-23T09:22:53;9.70;99.90
9497;DHT22;4786;51.270;4.456;2024-03-23T09:25:19;9.40;99.90
9497;DHT22;4786;51.270;4.456;2024-03-23T09:27:48;9.30;99.90
9497;DHT22;4786;51.270;4.456;2024-03-23T09:30:14;9.00;99.90
9497;DHT22;4786;51.270;4.456;2024-03-23T09:32:47;9.20;99.90
9497;DHT22;4786;51.270;4.456;2024-03-23T09:35:13;9.50;99.90
9497;DHT22;4786;51.270;4.456;2024-03-23T09:37:39;9.80;99.90
9497;DHT22;4786;51.270;4.456;2024-03-23T09:40:09;9.90;99.90
9497;DHT22;4786;51.270;4.456;2024-03-23T09:42:35;10.10;99.90
9497;DHT22;4786;51.270;4.456;2024-03-23T09:45:01;10.30;99.90
9497;DHT22;4786;51.270;4.456;2024-03-23T09:47:27;10.40;99.90
9497;DHT22;4786;51.270;4.456;2024-03-23T09:49:54;10.70;99.90
9497;DHT22;4786;51.270;4.456;2024-03-23T09:52:20;10.70;99.90
9497;DHT22;4786;51.270;4.456;2024-03-23T09:54:46;10.70;99.90
9497;DHT22;4786;51.270;4.456;2024-03-23T09:57:11;10.80;99.90
9497;DHT22;4786;51.270;4.456;2024-03-23T09:59:37;10.90;99.90
9497;DHT22;4786;51.270;4.456;2024-03-23T10:02:03;10.90;99.90
9497;DHT22;4786;51.270;4.456;2024-03-23T10:04:39;10.80;99.90
9497;DHT22;4786;51.270;4.456;2024-03-23T10:07:12;10.70;99.90
9497;DHT22;4786;51.270;4.456;2024-03-23T10:09:38;10.60;99.90
9497;DHT22;4786;51.270;4.456;2024-03-23T10:12:12;10.60;99.90
9497;DHT22;4786;51.270;4.456;2024-03-23T10:14:39;10.50;99.90
9497;DHT22;4786;51.270;4.456;2024-03-23T10:17:18;10.30;99.90
9497;DHT22;4786;51.270;4.456;2024-03-23T10:19:48;10.80;99.90
9497;DHT22;4786;51.270;4.456;2024-03-23T10:22:22;10.80;99.90
9497;DHT22;4786;51.270;4.456;2024-03-23T10:24:48;11.10;99.90
9497;DHT22;4786;51.270;4.456;2024-03-23T10:27:19;11.10;99.90
9497;DHT22;4786;51.270;4.456;2024-03-23T10:29:49;11.00;99.90
9497;DHT22;4786;51.270;4.456;2024-03-23T10:32:16;10.60;99.90
9497;DHT22;4786;51.270;4.456;2024-03-23T10:34:42;10.30;99.90
9497;DHT22;4786;51.270;4.456;2024-03-23T10:37:08;10.00;99.90
9497;DHT22;4786;51.270;4.456;2024-03-23T10:39:39;9.70;99.90
9497;DHT22;4786;51.270;4.456;2024-03-23T10:42:07;9.60;99.90
9497;DHT22;4786;51.270;4.456;2024-03-23T10:44:37;9.40;99.90
9497;DHT22;4786;51.270;4.456;2024-03-23T10:47:04;9.40;99.90
9497;DHT22;4786;51.270;4.456;2024-03-23T10:49:32;9.30;99.90
9497;DHT22;4786;51.270;4.456;2024-03-23T10:51:59;9.40;99.90
9497;DHT22;4786;51.270;4.456;2024-03-23T10:54:29;9.60;99.90
9497;DHT22;4786;51.270;4.456;2024-03-23T10:59:27;10.40;99.90
9497;DHT22;4786;51.270;4.456;2024-03-23T11:01:56;10.80;99.90
9497;DHT22;4786;51.270;4.456;2024-03-23T11:07:00;11.30;99.90
9497;DHT22;4786;51.270;4.456;2024-03-23T11:14:45;11.10;99.90
9497;DHT22;4786;51.270;4.456;2024-03-23T11:17:11;11.20;99.90
9497;DHT22;4786;51.270;4.456;2024-03-23T11:19:37;11.30;99.90
9497;DHT22;4786;51.270;4.456;2024-03-23T11:22:04;11.40;99.90
9497;DHT22;4786;51.270;4.456;2024-03-23T11:24:30;11.60;99.90
9497;DHT22;4786;51.270;4.456;2024-03-23T11:26:56;11.80;99.90
9497;DHT22;4786;51.270;4.456;2024-03-23T11:29:25;11.90;99.90
9497;DHT22;4786;51.270;4.456;2024-03-23T11:31:52;11.70;99.90
9497;DHT22;4786;51.270;4.456;2024-03-23T11:34:19;11.50;99.90
9497;DHT22;4786;51.270;4.456;2024-03-23T11:36:46;11.20;99.90
9497;DHT22;4786;51.270;4.456;2024-03-23T11:39:20;10.90;99.90
9497;DHT22;4786;51.270;4.456;2024-03-23T11:41:51;10.60;99.90
9497;DHT22;4786;51.270;4.456;2024-03-23T11:44:22;10.50;99.90
9497;DHT22;4786;51.270;4.456;2024-03-23T11:46:48;10.30;99.90
9497;DHT22;4786;51.270;4.456;2024-03-23T11:49:28;10.30;99.90
9497;DHT22;4786;51.270;4.456;2024-03-23T11:51:55;10.00;99.90
9497;DHT22;4786;51.270;4.456;2024-03-23T11:54:24;10.00;99.90
9497;DHT22;4786;51.270;4.456;2024-03-23T11:57:01;9.90;99.90
9497;DHT22;4786;51.270;4.456;2024-03-23T11:59:37;10.00;99.90
9497;DHT22;4786;51.270;4.456;2024-03-23T12:02:10;10.20;99.90
9497;DHT22;4786;51.270;4.456;2024-03-23T12:04:37;10.30;99.90
9497;DHT22;4786;51.270;4.456;2024-03-23T12:07:21;10.60;99.90
9497;DHT22;4786;51.270;4.456;2024-03-23T12:10:05;11.00;99.90
9497;DHT22;4786;51.270;4.456;2024-03-23T12:12:33;11.40;99.90
9497;DHT22;4786;51.270;4.456;2024-03-23T12:15:04;11.80;99.90
9497;DHT22;4786;51.270;4.456;2024-03-23T12:17:31;12.00;99.90
9497;DHT22;4786;51.270;4.456;2024-03-23T12:19:57;12.00;99.90
9497;DHT22;4786;51.270;4.456;2024-03-23T12:22:24;11.80;99.90
9497;DHT22;4786;51.270;4.456;2024-03-23T12:24:50;11.30;99.90
9497;DHT22;4786;51.270;4.456;2024-03-23T12:27:16;11.10;99.90
9497;DHT22;4786;51.270;4.456;2024-03-23T12:29:42;10.70;99.90
9497;DHT22;4786;51.270;4.456;2024-03-23T12:32:08;10.50;99.90
9497;DHT22;4786;51.270;4.456;2024-03-23T12:34:34;10.10;99.90
9497;DHT22;4786;51.270;4.456;2024-03-23T12:37:00;9.80;99.90
9497;DHT22;4786;51.270;4.456;2024-03-23T12:39:27;9.70;99.90
9497;DHT22;4786;51.270;4.456;2024-03-23T12:41:52;9.70;99.90
9497;DHT22;4786;51.270;4.456;2024-03-23T12:44:18;9.70;99.90
9497;DHT22;4786;51.270;4.456;2024-03-23T12:46:44;9.70;99.90
9497;DHT22;4786;51.270;4.456;2024-03-23T12:49:11;9.90;99.90
9497;DHT22;4786;51.270;4.456;2024-03-23T12:51:37;9.80;99.90
9497;DHT22;4786;51.270;4.456;2024-03-23T12:54:03;9.80;99.90
9497;DHT22;4786;51.270;4.456;2024-03-23T12:56:29;9.80;99.90
9497;DHT22;4786;51.270;4.456;2024-03-23T12:58:55;9.60;99.90
9497;DHT22;4786;51.270;4.456;2024-03-23T13:01:23;9.40;99.90
9497;DHT22;4786;51.270;4.456;2024-03-23T13:03:49;9.40;99.90
9497;DHT22;4786;51.270;4.456;2024-03-23T13:06:15;9.30;99.90
9497;DHT22;4786;51.270;4.456;2024-03-23T13:08:43;9.40;99.90
9497;DHT22;4786;51.270;4.456;2024-03-23T13:11:09;9.30;99.90
9497;DHT22;4786;51.270;4.456;2024-03-23T13:13:36;9.30;99.90
9497;DHT22;4786;51.270;4.456;2024-03-23T13:16:02;9.20;99.90
9497;DHT22;4786;51.270;4.456;2024-03-23T13:18:29;9.30;99.90
9497;DHT22;4786;51.270;4.456;2024-03-23T13:20:55;9.40;99.90
9497;DHT22;4786;51.270;4.456;2024-03-23T13:23:20;9.50;99.90
9497;DHT22;4786;51.270;4.456;2024-03-23T13:25:53;9.50;99.90
9497;DHT22;4786;51.270;4.456;2024-03-23T13:28:20;9.50;99.90
9497;DHT22;4786;51.270;4.456;2024-03-23T13:30:55;9.50;99.90
9497;DHT22;4786;51.270;4.456;2024-03-23T13:33:21;9.40;99.90
9497;DHT22;4786;51.270;4.456;2024-03-23T13:35:54;9.20;99.90
9497;DHT22;4786;51.270;4.456;2024-03-23T13:38:21;9.00;99.90
9497;DHT22;4786;51.270;4.456;2024-03-23T13:40:57;8.90;99.90
9497;DHT22;4786;51.270;4.456;2024-03-23T13:43:23;8.90;99.90
9497;DHT22;4786;51.270;4.456;2024-03-23T13:45:59;8.60;99.90
9497;DHT22;4786;51.270;4.456;2024-03-23T13:48:26;8.60;99.90
9497;DHT22;4786;51.270;4.456;2024-03-23T13:51:05;8.80;99.90
9497;DHT22;4786;51.270;4.456;2024-03-23T13:53:31;8.80;99.90
9497;DHT22;4786;51.270;4.456;2024-03-23T13:55:58;9.00;99.90
9497;DHT22;4786;51.270;4.456;2024-03-23T13:58:23;9.30;99.90
9497;DHT22;4786;51.270;4.456;2024-03-23T14:00:51;9.40;99.90
9497;DHT22;4786;51.270;4.456;2024-03-23T14:03:17;9.50;99.90
9497;DHT22;4786;51.270;4.456;2024-03-23T14:05:46;9.70;99.90
9497;DHT22;4786;51.270;4.456;2024-03-23T14:08:15;9.80;99.90
9497;DHT22;4786;51.270;4.456;2024-03-23T14:10:41;9.90;99.90
9497;DHT22;4786;51.270;4.456;2024-03-23T14:13:07;10.10;99.90
9497;DHT22;4786;51.270;4.456;2024-03-23T14:15:33;10.20;99.90
9497;DHT22;4786;51.270;4.456;2024-03-23T14:17:59;10.30;99.90
9497;DHT22;4786;51.270;4.456;2024-03-23T14:20:25;10.50;99.90
9497;DHT22;4786;51.270;4.456;2024-03-23T14:22:51;10.50;99.90
9497;DHT22;4786;51.270;4.456;2024-03-23T14:25:17;10.50;99.90
9497;DHT22;4786;51.270;4.456;2024-03-23T14:27:46;10.70;99.90
9497;DHT22;4786;51.270;4.456;2024-03-23T14:30:12;10.80;99.90
9497;DHT22;4786;51.270;4.456;2024-03-23T14:32:39;10.90;99.90
9497;DHT22;4786;51.270;4.456;2024-03-23T14:35:05;11.10;99.90
9497;DHT22;4786;51.270;4.456;2024-03-23T14:37:32;11.10;99.90
9497;DHT22;4786;51.270;4.456;2024-03-23T14:39:58;11.30;99.90
9497;DHT22;4786;51.270;4.456;2024-03-23T14:42:25;11.40;99.90
9497;DHT22;4786;51.270;4.456;2024-03-23T14:44:51;11.40;99.90
9497;DHT22;4786;51.270;4.456;2024-03-23T14:47:18;11.40;99.90
9497;DHT22;4786;51.270;4.456;2024-03-23T14:49:44;11.40;99.90
9497;DHT22;4786;51.270;4.456;2024-03-23T14:52:16;11.10;99.90
9497;DHT22;4786;51.270;4.456;2024-03-23T14:54:42;11.10;99.90
9497;DHT22;4786;51.270;4.456;2024-03-23T14:57:07;10.90;99.90
9497;DHT22;4786;51.270;4.456;2024-03-23T14:59:34;10.70;99.90
9497;DHT22;4786;51.270;4.456;2024-03-23T15:02:00;10.40;99.90
9497;DHT22;4786;51.270;4.456;2024-03-23T15:04:26;10.20;99.90
9497;DHT22;4786;51.270;4.456;2024-03-23T15:06:52;10.10;99.90
9497;DHT22;4786;51.270;4.456;2024-03-23T15:09:17;9.90;99.90
9497;DHT22;4786;51.270;4.456;2024-03-23T15:11:43;9.80;99.90
9497;DHT22;4786;51.270;4.456;2024-03-23T15:14:09;9.70;99.90
9497;DHT22;4786;51.270;4.456;2024-03-23T15:16:36;9.60;99.90
9497;DHT22;4786;51.270;4.456;2024-03-23T15:19:02;9.60;99.90
9497;DHT22;4786;51.270;4.456;2024-03-23T15:21:28;9.70;99.90
9497;DHT22;4786;51.270;4.456;2024-03-23T15:23:53;9.80;99.90
9497;DHT22;4786;51.270;4.456;2024-03-23T15:26:19;9.90;99.90
9497;DHT22;4786;51.270;4.456;2024-03-23T15:28:48;10.00;99.90
9497;DHT22;4786;51.270;4.456;2024-03-23T15:31:22;10.00;99.90
9497;DHT22;4786;51.270;4.456;2024-03-23T15:33:48;10.00;99.90
9497;DHT22;4786;51.270;4.456;2024-03-23T15:36:14;10.00;99.90
9497;DHT22;4786;51.270;4.456;2024-03-23T15:38:40;10.10;99.90
9497;DHT22;4786;51.270;4.456;2024-03-23T15:41:06;10.20;99.90
9497;DHT22;4786;51.270;4.456;2024-03-23T15:43:31;10.20;99.90
9497;DHT22;4786;51.270;4.456;2024-03-23T15:46:06;10.30;99.90
9497;DHT22;4786;51.270;4.456;2024-03-23T15:48:33;10.10;99.90
9497;DHT22;4786;51.270;4.456;2024-03-23T15:51:01;10.20;99.90
9497;DHT22;4786;51.270;4.456;2024-03-23T15:53:29;10.20;99.90
9497;DHT22;4786;51.270;4.456;2024-03-23T15:55:56;10.10;99.90
9497;DHT22;4786;51.270;4.456;2024-03-23T15:58:22;10.10;99.90
9497;DHT22;4786;51.270;4.456;2024-03-23T16:01:20;10.10;99.90
9497;DHT22;4786;51.270;4.456;2024-03-23T16:03:47;10.10;99.90
9497;DHT22;4786;51.270;4.456;2024-03-23T16:06:12;10.10;99.90
9497;DHT22;4786;51.270;4.456;2024-03-23T16:08:38;10.10;99.90
9497;DHT22;4786;51.270;4.456;2024-03-23T16:11:07;10.10;99.90
9497;DHT22;4786;51.270;4.456;2024-03-23T16:13:36;10.20;99.90
9497;DHT22;4786;51.270;4.456;2024-03-23T16:16:03;10.10;99.90
9497;DHT22;4786;51.270;4.456;2024-03-23T16:18:31;10.00;99.90
9497;DHT22;4786;51.270;4.456;2024-03-23T16:20:59;10.00;99.90
9497;DHT22;4786;51.270;4.456;2024-03-23T16:23:25;10.00;99.90
9497;DHT22;4786;51.270;4.456;2024-03-23T16:25:53;10.00;99.90
9497;DHT22;4786;51.270;4.456;2024-03-23T16:28:26;10.00;99.90
9497;DHT22;4786;51.270;4.456;2024-03-23T16:30:57;10.00;99.90
9497;DHT22;4786;51.270;4.456;2024-03-23T16:33:24;10.10;99.90
9497;DHT22;4786;51.270;4.456;2024-03-23T16:36:00;10.10;99.90
9497;DHT22;4786;51.270;4.456;2024-03-23T16:38:27;10.10;99.90
9497;DHT22;4786;51.270;4.456;2024-03-23T16:40:57;10.10;99.90
9497;DHT22;4786;51.270;4.456;2024-03-23T16:43:23;10.10;99.90
9497;DHT22;4786;51.270;4.456;2024-03-23T16:46:07;10.10;99.90
9497;DHT22;4786;51.270;4.456;2024-03-23T16:48:37;10.10;99.90
9497;DHT22;4786;51.270;4.456;2024-03-23T16:51:03;10.20;99.90
9497;DHT22;4786;51.270;4.456;2024-03-23T16:53:30;10.20;99.90
9497;DHT22;4786;51.270;4.456;2024-03-23T16:56:03;10.10;99.90
9497;DHT22;4786;51.270;4.456;2024-03-23T16:58:38;10.00;99.90
9497;DHT22;4786;51.270;4.456;2024-03-23T17:01:10;10.00;99.90
9497;DHT22;4786;51.270;4.456;2024-03-23T17:03:48;9.90;99.90
9497;DHT22;4786;51.270;4.456;2024-03-23T17:06:15;9.70;99.90
9497;DHT22;4786;51.270;4.456;2024-03-23T17:08:42;9.70;99.90
9497;DHT22;4786;51.270;4.456;2024-03-23T17:11:09;9.50;99.90
9497;DHT22;4786;51.270;4.456;2024-03-23T17:13:35;9.40;99.90
9497;DHT22;4786;51.270;4.456;2024-03-23T17:16:01;9.40;99.90
9497;DHT22;4786;51.270;4.456;2024-03-23T17:18:27;9.30;99.90